Time;durP1;ratioP1;P1;durP2;ratioP2;P2;SDS_P1;SDS_P2;PMS_P1;PMS_P2;Temp;Humidity;BMP_temperature;BMP_pressure;BME280_temperature;BME280_humidity;BME280_pressure;Samples;Min_cycle;Max_cycle;Signal;HPM_P1;HPM_P2
2023/08/17 00:01:39;;;;;;;12.80;6.28;;;16.40;99.90;;;;;;5132616;27;20117;-80
2023/08/17 00:04:05;;;;;;;9.77;6.28;;;16.30;99.90;;;;;;5128051;27;20043;-80
2023/08/17 00:06:31;;;;;;;11.18;5.88;;;16.30;99.90;;;;;;5153184;27;20276;-79
2023/08/17 00:08:56;;;;;;;10.48;6.22;;;16.30;99.90;;;;;;5171750;27;20473;-80
2023/08/17 00:11:22;;;;;;;8.85;5.90;;;16.30;99.90;;;;;;5153505;27;20036;-80
2023/08/17 00:13:48;;;;;;;8.57;6.00;;;16.30;99.90;;;;;;5152741;27;20041;-80
2023/08/17 00:16:13;;;;;;;10.73;5.93;;;16.30;99.90;;;;;;5153307;27;20044;-79
2023/08/17 00:18:41;;;;;;;9.80;6.50;;;16.30;99.90;;;;;;5164316;27;20042;-80
2023/08/17 00:21:07;;;;;;;13.48;6.70;;;16.30;99.90;;;;;;5132206;27;20061;-80
2023/08/17 00:23:33;;;;;;;9.73;7.78;;;16.30;99.90;;;;;;5115073;27;20043;-80
2023/08/17 00:25:59;;;;;;;8.23;6.95;;;16.30;99.90;;;;;;5150837;27;20030;-80
2023/08/17 00:28:24;;;;;;;12.77;7.03;;;16.20;99.90;;;;;;5132092;27;20038;-80
2023/08/17 00:30:51;;;;;;;10.98;5.75;;;16.30;99.90;;;;;;5115482;27;20488;-80
2023/08/17 00:33:16;;;;;;;7.65;5.30;;;16.30;99.90;;;;;;5156737;27;20038;-80
2023/08/17 00:35:43;;;;;;;9.98;7.45;;;16.30;99.90;;;;;;5152893;27;20038;-80
2023/08/17 00:38:08;;;;;;;12.88;5.25;;;16.30;99.90;;;;;;5152808;27;20038;-79
2023/08/17 00:40:34;;;;;;;10.27;5.60;;;16.30;99.90;;;;;;5152587;27;20034;-79
2023/08/17 00:43:00;;;;;;;10.00;7.22;;;16.30;99.90;;;;;;5134853;27;20396;-80
2023/08/17 00:45:26;;;;;;;14.25;6.18;;;16.30;99.90;;;;;;5152901;27;20041;-80
2023/08/17 00:47:56;;;;;;;8.38;6.35;;;16.30;99.90;;;;;;5147827;27;20030;-80
2023/08/17 00:50:23;;;;;;;10.43;5.28;;;16.30;99.90;;;;;;5131894;27;20045;-80
2023/08/17 00:52:49;;;;;;;7.65;5.10;;;16.30;99.90;;;;;;5114596;27;20042;-79
2023/08/17 00:55:14;;;;;;;9.63;6.00;;;16.30;99.90;;;;;;5114614;27;20038;-80
2023/08/17 00:57:41;;;;;;;11.10;5.10;;;16.30;99.90;;;;;;5149980;27;20037;-80
2023/08/17 01:00:09;;;;;;;7.82;5.03;;;16.30;99.90;;;;;;5114643;27;20034;-80
2023/08/17 01:02:35;;;;;;;9.43;6.78;;;16.30;99.90;;;;;;5118831;27;20033;-79
2023/08/17 01:05:02;;;;;;;7.65;5.97;;;16.20;99.90;;;;;;5134745;27;20607;-80
2023/08/17 01:07:27;;;;;;;10.90;5.78;;;16.20;99.90;;;;;;5135076;27;20125;-80
2023/08/17 01:09:53;;;;;;;8.40;5.95;;;16.30;99.90;;;;;;5152476;27;20121;-80
2023/08/17 01:12:30;;;;;;;13.30;6.53;;;16.20;99.90;;;;;;5134858;27;20037;-80
2023/08/17 01:15:12;;;;;;;13.80;6.45;;;16.10;99.90;;;;;;5152531;27;20042;-79
2023/08/17 01:17:54;;;;;;;7.90;5.85;;;16.10;99.90;;;;;;5132710;27;20102;-80
2023/08/17 01:20:21;;;;;;;8.75;6.47;;;16.10;99.90;;;;;;5117454;27;20053;-80
2023/08/17 01:22:50;;;;;;;10.95;6.97;;;16.00;99.90;;;;;;5135599;27;20090;-79
2023/08/17 01:25:15;;;;;;;8.55;6.07;;;16.00;99.90;;;;;;5135201;27;20488;-80
2023/08/17 01:27:44;;;;;;;9.65;6.57;;;15.90;99.90;;;;;;5154424;27;20122;-80
2023/08/17 01:30:12;;;;;;;7.82;5.25;;;15.90;99.90;;;;;;5136063;27;20065;-80
2023/08/17 01:33:15;;;;;;;8.82;5.90;;;15.80;99.90;;;;;;5118302;27;20042;-79
2023/08/17 01:36:15;;;;;;;11.18;7.07;;;15.90;99.90;;;;;;5138714;27;20049;-79
2023/08/17 01:38:43;;;;;;;7.93;5.97;;;15.80;99.90;;;;;;5125895;27;20149;-80
2023/08/17 01:41:13;;;;;;;11.35;6.38;;;15.70;99.90;;;;;;5134962;27;20035;-80
2023/08/17 01:43:47;;;;;;;9.75;6.20;;;15.50;99.90;;;;;;5118327;27;20027;-80
2023/08/17 01:46:17;;;;;;;9.15;5.07;;;15.60;99.90;;;;;;5135597;27;20403;-80
2023/08/17 01:48:44;;;;;;;11.05;6.30;;;15.60;99.90;;;;;;5117999;27;20076;-80
2023/08/17 01:51:12;;;;;;;9.77;5.18;;;15.50;99.90;;;;;;5135140;27;20037;-80
2023/08/17 01:53:37;;;;;;;8.35;6.00;;;15.50;99.90;;;;;;5153774;27;20113;-80
2023/08/17 01:56:03;;;;;;;6.68;5.15;;;15.40;99.90;;;;;;5118624;27;20122;-79
2023/08/17 01:58:29;;;;;;;6.68;5.93;;;15.40;99.90;;;;;;5135558;27;20380;-80
2023/08/17 02:00:54;;;;;;;6.10;5.20;;;15.30;99.90;;;;;;5134999;27;20087;-80
2023/08/17 02:03:20;;;;;;;8.95;5.07;;;15.40;99.90;;;;;;5153470;27;20093;-80
2023/08/17 02:05:46;;;;;;;12.13;6.13;;;15.30;99.90;;;;;;5118129;27;20075;-80
2023/08/17 02:08:12;;;;;;;10.68;6.22;;;15.50;99.90;;;;;;5165164;27;20038;-80
2023/08/17 02:10:38;;;;;;;10.20;6.32;;;15.30;99.90;;;;;;5174036;27;20041;-80
2023/08/17 02:13:04;;;;;;;8.75;5.65;;;15.30;99.90;;;;;;5155893;27;20034;-80
2023/08/17 02:15:30;;;;;;;9.27;5.00;;;15.40;99.90;;;;;;5155401;27;20066;-80
2023/08/17 02:17:59;;;;;;;9.40;6.13;;;15.40;99.90;;;;;;5155796;27;20038;-80
2023/08/17 02:20:24;;;;;;;9.90;5.32;;;15.60;99.90;;;;;;5137988;27;20041;-80
2023/08/17 02:22:50;;;;;;;10.13;6.57;;;15.40;99.90;;;;;;5154700;27;20038;-80
2023/08/17 02:25:16;;;;;;;12.30;5.60;;;15.40;99.90;;;;;;5155431;27;20043;-80
2023/08/17 02:27:41;;;;;;;11.73;5.75;;;15.50;99.90;;;;;;5155338;27;20501;-81
2023/08/17 02:30:07;;;;;;;9.60;6.20;;;15.50;99.90;;;;;;5155173;27;20037;-80
2023/08/17 02:32:33;;;;;;;8.48;6.18;;;15.50;99.90;;;;;;5155538;27;20466;-80
2023/08/17 02:34:59;;;;;;;13.57;5.50;;;15.50;99.90;;;;;;5155145;27;20122;-79
2023/08/17 02:37:24;;;;;;;11.50;5.97;;;15.60;99.90;;;;;;5127860;27;20042;-80
2023/08/17 02:39:50;;;;;;;11.55;6.15;;;15.50;99.90;;;;;;5134017;27;20449;-79
2023/08/17 02:42:16;;;;;;;8.82;5.18;;;15.40;99.90;;;;;;5134274;27;20046;-80
2023/08/17 02:44:41;;;;;;;10.05;5.95;;;15.50;99.90;;;;;;5117210;27;20043;-80
2023/08/17 02:47:07;;;;;;;7.93;4.80;;;15.60;99.90;;;;;;5116946;27;20044;-80
2023/08/17 02:49:32;;;;;;;13.45;6.85;;;15.60;99.90;;;;;;5152742;27;20082;-80
2023/08/17 02:51:58;;;;;;;8.50;5.45;;;15.70;99.90;;;;;;5116385;27;20038;-79
2023/08/17 02:54:24;;;;;;;7.10;4.47;;;15.70;99.90;;;;;;5134266;27;20370;-80
2023/08/17 02:56:49;;;;;;;10.93;4.97;;;15.70;99.90;;;;;;5134303;27;20102;-80
2023/08/17 02:59:15;;;;;;;10.20;6.43;;;15.70;99.90;;;;;;5133966;27;20073;-80
2023/08/17 03:01:40;;;;;;;7.57;5.38;;;15.70;99.90;;;;;;5134031;27;20038;-80
2023/08/17 03:04:06;;;;;;;12.15;4.72;;;15.80;99.90;;;;;;5116566;27;20179;-80
2023/08/17 03:06:32;;;;;;;10.10;6.03;;;15.80;99.90;;;;;;5157936;27;20472;-80
2023/08/17 03:08:57;;;;;;;10.27;5.00;;;15.80;99.90;;;;;;5137272;27;20550;-80
2023/08/17 03:11:23;;;;;;;7.97;5.13;;;15.80;99.90;;;;;;5137371;27;20035;-80
2023/08/17 03:13:49;;;;;;;9.93;5.80;;;15.80;99.90;;;;;;5154761;27;20082;-80
2023/08/17 03:16:15;;;;;;;7.38;5.43;;;15.90;99.90;;;;;;5173557;27;20070;-80
2023/08/17 03:18:41;;;;;;;10.90;5.70;;;15.80;99.90;;;;;;5137099;27;20450;-80
2023/08/17 03:21:07;;;;;;;11.52;6.00;;;15.80;99.90;;;;;;5152899;27;20054;-80
2023/08/17 03:23:33;;;;;;;10.18;5.40;;;15.80;99.90;;;;;;5153823;27;20396;-80
2023/08/17 03:25:58;;;;;;;12.00;5.55;;;15.80;99.90;;;;;;5137071;27;20044;-79
2023/08/17 03:28:25;;;;;;;11.55;5.78;;;15.80;99.90;;;;;;5154264;27;20110;-80
2023/08/17 03:30:55;;;;;;;9.40;6.10;;;15.80;99.90;;;;;;5154101;27;20125;-79
2023/08/17 03:33:21;;;;;;;8.73;5.75;;;15.80;99.90;;;;;;5172766;27;20084;-80
2023/08/17 03:35:46;;;;;;;10.45;5.45;;;15.70;99.90;;;;;;5153496;27;20085;-80
2023/08/17 03:38:12;;;;;;;10.18;5.65;;;15.70;99.90;;;;;;5152940;27;20471;-80
2023/08/17 03:40:38;;;;;;;12.25;5.30;;;15.70;99.90;;;;;;5153985;27;20046;-80
2023/08/17 03:43:03;;;;;;;10.60;5.82;;;15.60;99.90;;;;;;5153326;27;20125;-80
2023/08/17 03:45:30;;;;;;;10.80;5.50;;;15.60;99.90;;;;;;5153867;27;20042;-80
2023/08/17 03:47:56;;;;;;;9.60;5.88;;;15.60;99.90;;;;;;5153839;27;20046;-79
2023/08/17 03:50:22;;;;;;;9.23;5.38;;;15.50;99.90;;;;;;5135865;27;20040;-80
2023/08/17 03:52:47;;;;;;;10.82;5.35;;;15.40;99.90;;;;;;5172346;27;20536;-80
2023/08/17 03:55:13;;;;;;;8.10;5.53;;;15.50;99.90;;;;;;5153978;27;20079;-80
2023/08/17 03:57:39;;;;;;;11.57;6.45;;;15.50;99.90;;;;;;5172247;27;20038;-79
2023/08/17 04:00:06;;;;;;;7.82;5.07;;;15.40;99.90;;;;;;5153885;27;20422;-80
2023/08/17 04:02:31;;;;;;;8.00;5.50;;;15.40;99.90;;;;;;5136465;27;20117;-80
2023/08/17 04:04:57;;;;;;;7.68;5.90;;;15.50;99.90;;;;;;5135560;27;20579;-80
2023/08/17 04:07:23;;;;;;;8.45;6.40;;;15.40;99.90;;;;;;5136090;27;20043;-80
2023/08/17 04:09:49;;;;;;;11.55;5.90;;;15.40;99.90;;;;;;5132815;27;20384;-80
2023/08/17 04:12:15;;;;;;;6.90;5.30;;;15.40;99.90;;;;;;5132743;27;20030;-80
2023/08/17 04:14:40;;;;;;;9.25;5.30;;;15.40;99.90;;;;;;5115630;27;20449;-80
2023/08/17 04:17:08;;;;;;;8.82;6.43;;;15.30;99.90;;;;;;5115538;27;20672;-80
2023/08/17 04:19:33;;;;;;;13.05;6.13;;;15.40;99.90;;;;;;5115022;27;20062;-80
2023/08/17 04:21:59;;;;;;;10.05;5.53;;;15.30;99.90;;;;;;5150736;27;20145;-79
2023/08/17 04:24:24;;;;;;;7.80;4.65;;;15.30;99.90;;;;;;5150922;27;20453;-80
2023/08/17 04:26:50;;;;;;;10.02;5.20;;;15.30;99.90;;;;;;5115027;27;20476;-80
2023/08/17 04:29:16;;;;;;;14.15;5.57;;;15.30;99.90;;;;;;5150763;27;20042;-80
2023/08/17 04:31:41;;;;;;;9.48;5.65;;;15.30;99.90;;;;;;5115124;27;20392;-80
2023/08/17 04:34:07;;;;;;;9.73;5.13;;;15.30;99.90;;;;;;5131612;27;20305;-80
2023/08/17 04:36:33;;;;;;;11.30;5.70;;;15.30;99.90;;;;;;5146472;27;20034;-79
2023/08/17 04:38:59;;;;;;;9.23;4.55;;;15.30;99.90;;;;;;5135751;27;20376;-80
2023/08/17 04:41:24;;;;;;;9.63;4.28;;;15.20;99.90;;;;;;5152818;27;20076;-80
2023/08/17 04:43:50;;;;;;;9.82;5.32;;;15.30;99.90;;;;;;5171477;27;20038;-81
2023/08/17 04:46:15;;;;;;;10.30;5.53;;;15.40;99.90;;;;;;5171316;27;20073;-80
2023/08/17 04:48:41;;;;;;;9.02;4.78;;;15.30;99.90;;;;;;5152099;27;20030;-80
2023/08/17 04:51:07;;;;;;;11.02;4.68;;;15.30;99.90;;;;;;5150522;27;20042;-79
2023/08/17 04:53:32;;;;;;;10.25;4.78;;;15.30;99.90;;;;;;5134308;27;20038;-80
2023/08/17 04:56:03;;;;;;;9.38;4.93;;;15.30;99.90;;;;;;5152594;27;20030;-79
2023/08/17 04:58:28;;;;;;;13.38;4.85;;;15.30;99.90;;;;;;5171323;27;20042;-80
2023/08/17 05:00:54;;;;;;;8.85;4.72;;;15.30;99.90;;;;;;5135100;27;20034;-80
2023/08/17 05:03:19;;;;;;;11.98;4.70;;;15.30;99.90;;;;;;5170636;27;20039;-80
2023/08/17 05:05:45;;;;;;;10.45;4.35;;;15.30;99.90;;;;;;5152186;27;20082;-79
2023/08/17 05:08:11;;;;;;;10.68;4.85;;;15.30;99.90;;;;;;5135164;27;20449;-80
2023/08/17 05:10:36;;;;;;;7.72;4.78;;;15.30;99.90;;;;;;5152557;27;20085;-79
2023/08/17 05:13:02;;;;;;;9.00;4.70;;;15.30;99.90;;;;;;5152450;27;20030;-80
2023/08/17 05:15:28;;;;;;;9.90;5.20;;;15.40;99.90;;;;;;5135301;27;20074;-80
2023/08/17 05:17:53;;;;;;;10.65;4.85;;;15.50;99.90;;;;;;5151745;27;20040;-79
2023/08/17 05:20:20;;;;;;;11.35;4.43;;;15.50;99.90;;;;;;5129504;27;20408;-80
2023/08/17 05:22:46;;;;;;;9.23;4.90;;;15.60;99.90;;;;;;5131319;27;20059;-80
2023/08/17 05:25:12;;;;;;;13.52;4.88;;;15.60;99.90;;;;;;5150003;27;20102;-80
2023/08/17 05:27:38;;;;;;;11.60;5.38;;;15.60;99.90;;;;;;5131546;27;20047;-79
2023/08/17 05:30:04;;;;;;;7.95;5.30;;;15.70;99.90;;;;;;5131702;27;20027;-80
2023/08/17 05:32:29;;;;;;;12.65;5.43;;;15.70;99.90;;;;;;5131400;27;20043;-80
2023/08/17 05:34:55;;;;;;;9.88;5.10;;;15.80;99.90;;;;;;5118503;27;20030;-79
2023/08/17 05:37:21;;;;;;;9.18;5.05;;;15.80;99.90;;;;;;5151745;27;20034;-79
2023/08/17 05:39:46;;;;;;;9.13;5.15;;;15.80;99.90;;;;;;5151884;27;20511;-80
2023/08/17 05:42:12;;;;;;;11.80;6.95;;;15.80;99.90;;;;;;5134724;27;20108;-80
2023/08/17 05:44:37;;;;;;;9.75;4.68;;;15.80;99.90;;;;;;5152041;27;20433;-80
2023/08/17 05:47:03;;;;;;;11.43;5.20;;;15.80;99.90;;;;;;5151730;27;20126;-80
2023/08/17 05:49:29;;;;;;;7.15;4.75;;;15.90;99.90;;;;;;5161088;27;20079;-80
2023/08/17 05:51:54;;;;;;;9.50;5.55;;;16.00;99.90;;;;;;5131502;27;20046;-80
2023/08/17 05:54:20;;;;;;;9.52;4.25;;;16.10;99.90;;;;;;5114275;27;20039;-80
2023/08/17 05:56:47;;;;;;;10.52;5.00;;;16.30;99.90;;;;;;5114135;27;20039;-80
2023/08/17 05:59:13;;;;;;;9.40;5.22;;;16.40;99.90;;;;;;5131536;27;20046;-80
2023/08/17 06:01:40;;;;;;;11.25;5.00;;;16.40;99.90;;;;;;5130625;27;20090;-80
2023/08/17 06:04:06;;;;;;;11.48;4.32;;;16.50;99.90;;;;;;5131062;27;20117;-80
2023/08/17 06:06:32;;;;;;;10.93;4.85;;;16.50;99.90;;;;;;5134435;27;20119;-79
2023/08/17 06:08:57;;;;;;;9.25;4.57;;;16.50;99.90;;;;;;5123931;27;20121;-80
2023/08/17 06:11:23;;;;;;;8.60;5.28;;;16.60;99.90;;;;;;5155723;27;20038;-80
2023/08/17 06:13:49;;;;;;;8.40;4.28;;;16.60;99.90;;;;;;5138365;27;20080;-79
2023/08/17 06:16:15;;;;;;;9.63;5.03;;;16.60;99.90;;;;;;5155245;27;20073;-80
2023/08/17 06:18:41;;;;;;;11.45;4.20;;;16.70;99.90;;;;;;5155648;27;20094;-79
2023/08/17 06:21:08;;;;;;;10.00;4.20;;;16.70;99.90;;;;;;5174097;27;20046;-80
2023/08/17 06:23:33;;;;;;;15.60;5.03;;;16.70;99.90;;;;;;5136280;27;20655;-80
2023/08/17 06:25:59;;;;;;;9.68;4.78;;;16.80;99.90;;;;;;5155657;27;20035;-80
2023/08/17 06:28:27;;;;;;;10.98;4.25;;;16.80;99.90;;;;;;5155446;27;20332;-80
2023/08/17 06:30:56;;;;;;;8.27;4.43;;;16.70;99.90;;;;;;5137809;27;20370;-80
2023/08/17 06:33:22;;;;;;;9.13;4.72;;;16.90;99.90;;;;;;5155384;27;20042;-80
2023/08/17 06:35:48;;;;;;;8.00;3.95;;;16.90;99.90;;;;;;5155100;27;20452;-80
2023/08/17 06:38:14;;;;;;;13.60;4.72;;;17.00;99.90;;;;;;5151147;27;20035;-80
2023/08/17 06:40:40;;;;;;;10.93;4.85;;;17.00;99.90;;;;;;5134335;27;20038;-81
2023/08/17 06:43:06;;;;;;;8.80;4.10;;;17.10;99.90;;;;;;5117217;27;20106;-80
2023/08/17 06:45:32;;;;;;;9.85;5.32;;;17.20;99.90;;;;;;5116731;27;20735;-80
2023/08/17 06:47:58;;;;;;;7.15;4.68;;;17.30;99.90;;;;;;5116998;27;20092;-80
2023/08/17 06:50:25;;;;;;;9.23;4.63;;;17.40;99.90;;;;;;5117047;27;20087;-80
2023/08/17 06:52:50;;;;;;;8.73;4.55;;;17.40;99.90;;;;;;5116914;27;20170;-80
2023/08/17 06:55:16;;;;;;;10.57;4.53;;;17.40;99.90;;;;;;5134053;27;20472;-80
2023/08/17 06:57:42;;;;;;;10.27;4.43;;;17.40;99.90;;;;;;5117085;27;20391;-80
2023/08/17 07:00:08;;;;;;;8.43;4.63;;;17.30;99.90;;;;;;5116310;27;20034;-80
2023/08/17 07:02:34;;;;;;;11.25;9.60;;;17.30;99.90;;;;;;5134191;27;20037;-80
2023/08/17 07:05:00;;;;;;;9.75;4.90;;;17.30;99.90;;;;;;5152442;27;20122;-80
2023/08/17 07:07:26;;;;;;;8.02;6.03;;;17.30;99.90;;;;;;5135125;27;20046;-80
2023/08/17 07:09:52;;;;;;;8.82;5.22;;;17.30;99.90;;;;;;5137463;27;20038;-79
2023/08/17 07:12:19;;;;;;;9.05;4.32;;;17.30;99.90;;;;;;5137062;27;20030;-80
2023/08/17 07:14:45;;;;;;;14.02;5.57;;;17.40;99.90;;;;;;5137341;27;20049;-80
2023/08/17 07:17:10;;;;;;;9.32;4.97;;;17.40;99.90;;;;;;5153582;27;20038;-80
2023/08/17 07:19:36;;;;;;;8.82;4.63;;;17.50;99.90;;;;;;5154411;27;20125;-80
2023/08/17 07:22:02;;;;;;;13.38;4.63;;;17.40;99.90;;;;;;5153888;27;20050;-80
2023/08/17 07:24:27;;;;;;;9.38;3.88;;;17.50;99.90;;;;;;5172916;27;20198;-80
2023/08/17 07:26:53;;;;;;;8.57;5.45;;;17.60;99.90;;;;;;5154191;27;20031;-80
2023/08/17 07:29:18;;;;;;;9.30;8.43;;;17.60;99.90;;;;;;5172693;27;20057;-80
2023/08/17 07:31:44;;;;;;;9.95;7.35;;;17.60;99.90;;;;;;5136782;27;20494;-80
2023/08/17 07:34:10;;;;;;;6.60;5.93;;;17.60;99.90;;;;;;5137097;27;20042;-80
2023/08/17 07:36:36;;;;;;;7.10;4.65;;;17.70;99.90;;;;;;5154044;27;20045;-80
2023/08/17 07:39:01;;;;;;;7.40;6.07;;;17.70;99.90;;;;;;5134357;27;20349;-80
2023/08/17 07:41:27;;;;;;;7.35;4.38;;;17.70;99.90;;;;;;5116417;27;20026;-80
2023/08/17 07:43:53;;;;;;;8.80;4.25;;;17.80;99.90;;;;;;5115466;27;20091;-80
2023/08/17 07:46:18;;;;;;;8.70;5.53;;;17.80;99.90;;;;;;5133127;27;20472;-80
2023/08/17 07:48:44;;;;;;;7.38;3.97;;;17.70;99.90;;;;;;5133416;27;20039;-80
2023/08/17 07:51:10;;;;;;;7.40;5.20;;;17.70;99.90;;;;;;5116285;27;20038;-80
2023/08/17 07:53:35;;;;;;;5.93;4.30;;;17.70;99.90;;;;;;5116085;27;20049;-80
2023/08/17 07:56:01;;;;;;;9.63;6.38;;;17.80;99.90;;;;;;5151892;27;20493;-80
2023/08/17 07:58:26;;;;;;;10.40;4.50;;;17.70;99.90;;;;;;5132687;27;20031;-80
2023/08/17 08:00:52;;;;;;;7.72;6.30;;;17.80;99.90;;;;;;5133932;27;20099;-81
2023/08/17 08:03:18;;;;;;;7.85;5.43;;;17.80;99.90;;;;;;5153510;27;20154;-80
2023/08/17 08:05:44;;;;;;;6.70;5.32;;;17.80;99.90;;;;;;5136246;27;20034;-80
2023/08/17 08:08:09;;;;;;;5.93;5.20;;;17.90;99.90;;;;;;5153498;27;20106;-80
2023/08/17 08:10:35;;;;;;;6.85;4.80;;;18.10;99.90;;;;;;5115796;27;20524;-80
2023/08/17 08:13:01;;;;;;;7.63;4.68;;;18.00;99.90;;;;;;5132552;27;20499;-80
2023/08/17 08:15:26;;;;;;;10.68;5.10;;;18.00;99.90;;;;;;5132560;27;20049;-80
2023/08/17 08:17:52;;;;;;;11.13;5.43;;;18.00;99.90;;;;;;5132595;27;20038;-80
2023/08/17 08:20:18;;;;;;;5.13;4.63;;;18.00;99.90;;;;;;5115522;27;20381;-80
2023/08/17 08:22:43;;;;;;;7.57;5.10;;;17.90;99.90;;;;;;5114969;27;20481;-80
2023/08/17 08:25:10;;;;;;;6.63;4.95;;;18.00;99.90;;;;;;5132168;27;20045;-80
2023/08/17 08:27:36;;;;;;;9.18;5.40;;;18.10;99.90;;;;;;5151686;27;20090;-80
2023/08/17 08:30:01;;;;;;;8.10;5.80;;;18.20;99.90;;;;;;5150932;27;20106;-80
2023/08/17 08:32:27;;;;;;;9.40;5.63;;;18.30;99.90;;;;;;5150961;27;20072;-80
2023/08/17 08:34:53;;;;;;;6.03;5.25;;;18.50;99.90;;;;;;5115175;27;20122;-80
2023/08/17 08:37:18;;;;;;;8.00;5.30;;;18.70;99.90;;;;;;5115083;27;20395;-80
2023/08/17 08:39:55;;;;;;;5.97;4.18;;;18.70;99.90;;;;;;5115282;27;20038;-80
2023/08/17 08:42:22;;;;;;;5.90;5.30;;;18.90;99.90;;;;;;5132382;27;20046;-80
2023/08/17 08:44:49;;;;;;;8.90;4.53;;;19.00;99.90;;;;;;5146955;27;20056;-80
2023/08/17 08:47:17;;;;;;;6.53;4.82;;;19.10;99.90;;;;;;5152952;27;20122;-80
2023/08/17 08:50:01;;;;;;;6.47;4.80;;;19.30;99.90;;;;;;5135563;27;20038;-80
2023/08/17 08:52:32;;;;;;;8.77;6.57;;;19.60;99.90;;;;;;5130832;27;20113;-80
2023/08/17 08:55:02;;;;;;;10.05;7.32;;;19.70;99.90;;;;;;5114424;27;20134;-80
2023/08/17 08:57:28;;;;;;;5.45;4.65;;;19.70;99.90;;;;;;5114895;27;20049;-81
2023/08/17 08:59:55;;;;;;;10.23;7.93;;;19.70;99.90;;;;;;5132057;27;20035;-80
2023/08/17 09:02:20;;;;;;;6.93;6.20;;;19.70;99.90;;;;;;5132074;27;20037;-80
2023/08/17 09:04:46;;;;;;;6.38;5.30;;;19.60;99.90;;;;;;5150500;27;20042;-80
2023/08/17 09:07:14;;;;;;;4.35;3.75;;;19.50;99.90;;;;;;5114987;27;20182;-80
2023/08/17 09:09:40;;;;;;;9.95;8.90;;;19.60;99.90;;;;;;5131455;27;20045;-81
2023/08/17 09:12:11;;;;;;;8.18;4.72;;;19.70;99.90;;;;;;5114570;27;20035;-79
2023/08/17 09:14:37;;;;;;;6.28;5.15;;;19.70;99.90;;;;;;5114833;27;20034;-80
2023/08/17 09:17:03;;;;;;;5.95;4.85;;;19.70;99.90;;;;;;5131514;27;20035;-80
2023/08/17 09:19:32;;;;;;;7.22;4.93;;;19.80;99.90;;;;;;5114547;27;20173;-80
2023/08/17 09:21:58;;;;;;;5.85;4.55;;;20.00;99.90;;;;;;5135823;27;20046;-80
2023/08/17 09:24:23;;;;;;;8.40;5.78;;;20.20;99.90;;;;;;5134387;27;20103;-80
2023/08/17 09:26:50;;;;;;;10.18;5.50;;;20.30;99.90;;;;;;5152333;27;20107;-80
2023/08/17 09:29:20;;;;;;;6.03;5.32;;;20.50;99.90;;;;;;5135447;27;20061;-80
2023/08/17 09:31:46;;;;;;;6.95;4.28;;;20.50;99.90;;;;;;5152318;27;20488;-80
2023/08/17 09:34:14;;;;;;;6.13;4.93;;;20.60;99.90;;;;;;5132160;27;20317;-80
2023/08/17 09:36:40;;;;;;;5.82;5.22;;;20.50;99.90;;;;;;5131741;27;20082;-80
2023/08/17 09:39:06;;;;;;;10.30;6.25;;;20.40;99.90;;;;;;5114050;27;20078;-80
2023/08/17 09:41:39;;;;;;;6.82;5.55;;;20.40;99.90;;;;;;5153166;27;20082;-80
2023/08/17 09:44:07;;;;;;;;;;;20.20;99.90;;;;;;5136205;27;20077;-80
2023/08/17 09:46:32;;;;;;;5.90;5.30;;;20.20;99.90;;;;;;5174834;27;20416;-80
2023/08/17 09:48:58;;;;;;;6.05;4.65;;;20.10;99.90;;;;;;5156052;27;20062;-81
2023/08/17 09:51:24;;;;;;;7.38;4.65;;;20.10;99.90;;;;;;5138951;27;20115;-80
2023/08/17 09:53:53;;;;;;;8.35;4.93;;;20.00;99.90;;;;;;5174348;27;20041;-80
2023/08/17 09:56:24;;;;;;;7.88;5.00;;;20.10;99.90;;;;;;5156008;27;20045;-80
2023/08/17 09:58:50;;;;;;;8.85;8.05;;;20.10;99.90;;;;;;5155870;27;20505;-81
2023/08/17 10:01:17;;;;;;;5.18;4.68;;;19.90;99.90;;;;;;5156091;27;20045;-80
2023/08/17 10:03:45;;;;;;;10.52;4.35;;;19.90;99.90;;;;;;5174452;27;20046;-80
2023/08/17 10:06:16;;;;;;;6.22;5.38;;;20.10;99.90;;;;;;5174613;27;20401;-80
2023/08/17 10:08:47;;;;;;;10.50;4.88;;;20.20;99.90;;;;;;5173862;27;20484;-80
2023/08/17 10:11:19;;;;;;;10.30;9.05;;;20.20;99.90;;;;;;5155780;27;20079;-80
2023/08/17 10:14:02;;;;;;;8.50;5.57;;;20.30;99.90;;;;;;5118963;27;20066;-80
2023/08/17 10:16:49;;;;;;;5.90;5.38;;;20.40;99.90;;;;;;5153464;27;20148;-80
2023/08/17 10:19:40;;;;;;;9.48;5.40;;;20.50;99.90;;;;;;5153565;27;20066;-80
2023/08/17 10:22:18;;;;;;;5.40;4.90;;;20.60;99.90;;;;;;5133922;27;20119;-80
2023/08/17 10:24:45;;;;;;;8.65;5.15;;;20.90;99.90;;;;;;5117354;27;20047;-80
2023/08/17 10:27:12;;;;;;;6.63;4.90;;;21.10;99.90;;;;;;5118908;27;20412;-80
2023/08/17 10:29:39;;;;;;;20.85;19.42;;;21.30;99.90;;;;;;5134645;27;20042;-81
2023/08/17 10:32:07;;;;;;;12.73;11.43;;;21.30;99.90;;;;;;5134667;27;20045;-80
2023/08/17 10:34:34;;;;;;;6.53;4.70;;;21.30;99.90;;;;;;5134562;27;20480;-80
2023/08/17 10:37:01;;;;;;;6.97;4.63;;;21.60;99.90;;;;;;5152583;27;20268;-80
2023/08/17 10:39:28;;;;;;;6.95;6.25;;;22.00;99.90;;;;;;5134363;27;20106;-80
2023/08/17 10:41:55;;;;;;;7.20;5.30;;;22.30;99.90;;;;;;5141882;27;20090;-81
2023/08/17 10:44:45;;;;;;;8.85;5.80;;;22.10;99.90;;;;;;5173879;27;20038;-80
2023/08/17 10:47:28;;;;;;;7.40;6.22;;;21.70;99.90;;;;;;5173933;27;20087;-80
2023/08/17 10:50:01;;;;;;;11.52;10.30;;;21.80;99.90;;;;;;5137486;27;20045;-80
2023/08/17 10:52:35;;;;;;;9.55;6.50;;;21.70;99.90;;;;;;5137375;27;20046;-80
2023/08/17 10:55:06;;;;;;;7.50;5.93;;;21.80;99.90;;;;;;5137495;27;20034;-80
2023/08/17 10:57:36;;;;;;;7.50;6.30;;;21.90;99.90;;;;;;5136105;27;20291;-80
2023/08/17 11:00:29;;;;;;;10.20;5.65;;;21.70;99.90;;;;;;5152674;27;20522;-80
2023/08/17 11:02:56;;;;;;;;;;;21.50;99.90;;;;;;5117453;27;20084;-80
2023/08/17 11:05:38;;;;;;;7.45;5.43;;;21.50;99.90;;;;;;5152027;27;19926;-80
2023/08/17 11:08:05;;;;;;;9.82;8.93;;;21.50;99.90;;;;;;5133929;27;20066;-80
2023/08/17 11:10:31;;;;;;;6.40;5.15;;;21.50;99.90;;;;;;5134162;27;20417;-81
2023/08/17 11:13:01;;;;;;;7.38;5.47;;;21.40;99.90;;;;;;5152510;27;20086;-81
2023/08/17 11:15:38;;;;;;;8.82;6.80;;;21.50;99.90;;;;;;5117596;27;20094;-80
2023/08/17 11:18:07;;;;;;;7.38;6.05;;;21.50;99.90;;;;;;5152222;27;20066;-80
2023/08/17 11:20:33;;;;;;;8.00;6.38;;;21.60;99.90;;;;;;5151778;27;20053;-81
2023/08/17 11:22:59;;;;;;;10.23;5.95;;;21.50;99.90;;;;;;5116276;27;20506;-80
2023/08/17 11:25:29;;;;;;;22.98;20.90;;;21.40;99.90;;;;;;5133362;27;20043;-80
2023/08/17 11:27:55;;;;;;;6.70;6.10;;;21.30;99.90;;;;;;5133441;27;20194;-80
2023/08/17 11:30:22;;;;;;;8.68;6.45;;;21.50;99.90;;;;;;5141992;27;20399;-80
2023/08/17 11:32:50;;;;;;;8.27;5.22;;;21.60;99.90;;;;;;5153685;27;20113;-80
2023/08/17 11:35:16;;;;;;;7.63;6.88;;;21.90;99.90;;;;;;5153841;27;20279;-80
2023/08/17 11:37:43;;;;;;;7.30;5.90;;;22.10;99.90;;;;;;5154239;27;20392;-81
2023/08/17 11:40:11;;;;;;;8.80;7.90;;;22.00;99.90;;;;;;5136583;27;20487;-80
2023/08/17 11:42:37;;;;;;;6.25;5.40;;;22.10;99.90;;;;;;5136652;27;20042;-80
2023/08/17 11:45:04;;;;;;;6.13;5.60;;;22.20;99.90;;;;;;5134569;27;20456;-80
2023/08/17 11:47:32;;;;;;;7.85;6.28;;;22.20;99.90;;;;;;5133136;27;20043;-80
2023/08/17 11:50:04;;;;;;;13.73;10.82;;;21.90;99.90;;;;;;5115710;27;20045;-81
2023/08/17 11:52:34;;;;;;;10.25;8.70;;;21.90;99.90;;;;;;5152773;27;20062;-81
2023/08/17 11:55:00;;;;;;;8.57;5.80;;;21.80;99.90;;;;;;5141609;27;20260;-80
2023/08/17 11:57:26;;;;;;;7.00;5.63;;;21.70;99.90;;;;;;5136278;27;20125;-81
2023/08/17 11:59:56;;;;;;;8.10;5.90;;;21.70;99.90;;;;;;5153503;27;20511;-80
2023/08/17 12:02:24;;;;;;;8.38;5.45;;;22.10;99.90;;;;;;5153573;27;20381;-80
2023/08/17 12:04:50;;;;;;;19.02;17.45;;;22.30;99.90;;;;;;5171434;27;20042;-80
2023/08/17 12:07:17;;;;;;;7.65;5.38;;;22.30;99.90;;;;;;5153503;27;20044;-80
2023/08/17 12:09:44;;;;;;;7.35;5.00;;;22.30;99.90;;;;;;5128266;27;20058;-79
2023/08/17 12:12:10;;;;;;;11.02;6.70;;;22.50;99.90;;;;;;5115342;27;20088;-80
2023/08/17 12:14:37;;;;;;;8.30;6.60;;;22.50;99.90;;;;;;5132760;27;20049;-80
2023/08/17 12:17:03;;;;;;;7.03;5.72;;;22.30;99.90;;;;;;5132571;27;20129;-80
2023/08/17 12:19:29;;;;;;;6.18;5.57;;;22.40;99.90;;;;;;5114935;27;20547;-80
2023/08/17 12:21:57;;;;;;;7.07;5.72;;;22.60;99.90;;;;;;5115204;27;20061;-80
2023/08/17 12:24:26;;;;;;;6.13;5.55;;;22.90;99.90;;;;;;5115221;27;20059;-80
2023/08/17 12:26:52;;;;;;;6.82;6.13;;;22.90;99.90;;;;;;5132470;27;20035;-81
2023/08/17 12:29:17;;;;;;;6.82;6.22;;;23.10;99.90;;;;;;5132680;27;20173;-80
2023/08/17 12:31:44;;;;;;;11.02;8.65;;;23.10;99.90;;;;;;5115044;27;20118;-80
2023/08/17 12:34:10;;;;;;;11.95;6.72;;;23.10;99.90;;;;;;5132008;27;20081;-81
2023/08/17 12:36:37;;;;;;;8.68;5.85;;;23.10;99.90;;;;;;5132241;27;20074;-80
2023/08/17 12:39:04;;;;;;;8.77;5.35;;;22.90;99.90;;;;;;5116726;27;20536;-81
2023/08/17 12:41:30;;;;;;;6.95;5.80;;;23.00;99.90;;;;;;5135676;27;20526;-81
2023/08/17 12:43:58;;;;;;;7.63;6.93;;;23.10;99.90;;;;;;5135758;27;20086;-81